createdAt,value
2023-01-22T00:01:12.826Z,0.30
2023-01-22T00:03:40.652Z,0.20
2023-01-22T00:06:09.293Z,0.10
2023-01-22T00:08:36.454Z,0.10
2023-01-22T00:11:03.981Z,0.30
2023-01-22T00:13:31.314Z,0.30
2023-01-22T00:15:59.962Z,0.20
2023-01-22T00:18:27.303Z,0.10
2023-01-22T00:20:55.622Z,0.30
2023-01-22T00:23:23.732Z,0.30
2023-01-22T00:26:03.835Z,0.10
2023-01-22T00:28:32.014Z,0.10
2023-01-22T00:31:04.043Z,0.20
2023-01-22T00:33:32.280Z,0.30
2023-01-22T00:36:12.495Z,0.30
2023-01-22T00:38:41.179Z,0.10
2023-01-22T00:41:09.451Z,0.00
2023-01-22T00:43:40.795Z,0.10
2023-01-22T00:46:13.364Z,0.10
2023-01-22T00:48:40.804Z,0.20
2023-01-22T00:51:08.853Z,0.10
2023-01-22T00:53:37.069Z,0.20
2023-01-22T00:56:04.749Z,0.30
2023-01-22T00:58:31.731Z,0.10
2023-01-22T01:00:58.818Z,0.40
2023-01-22T01:03:30.779Z,0.20
2023-01-22T01:06:06.002Z,0.30
2023-01-22T01:08:36.846Z,0.30
2023-01-22T01:11:13.739Z,0.40
2023-01-22T01:13:43.223Z,0.30
2023-01-22T01:16:23.803Z,0.10
2023-01-22T01:18:50.948Z,0.20
2023-01-22T01:23:46.901Z,0.40
2023-01-22T01:26:16.077Z,0.40
2023-01-22T01:28:45.474Z,0.50
2023-01-22T01:31:15.876Z,0.50
2023-01-22T01:33:43.521Z,0.60
2023-01-22T01:36:15.535Z,0.30
2023-01-22T01:38:43.823Z,0.60
2023-01-22T01:41:15.843Z,0.60
2023-01-22T01:43:43.137Z,0.60
2023-01-22T01:46:25.276Z,0.40
2023-01-22T01:48:54.604Z,0.60
2023-01-22T01:51:35.066Z,0.50
2023-01-22T01:54:04.376Z,0.60
2023-01-22T01:56:38.642Z,0.50
2023-01-22T01:59:13.212Z,0.40
2023-01-22T02:01:41.167Z,0.40
2023-01-22T02:04:08.468Z,0.50
2023-01-22T02:09:04.396Z,0.40
2023-01-22T02:11:34.088Z,0.60
2023-01-22T02:14:06.154Z,0.70
2023-01-22T02:16:33.620Z,0.60
2023-01-22T02:19:00.647Z,0.60
2023-01-22T02:21:36.735Z,0.60
2023-01-22T02:24:08.291Z,0.70
2023-01-22T02:26:36.184Z,0.50
2023-01-22T02:29:04.862Z,0.60
2023-01-22T02:31:32.079Z,0.60
2023-01-22T02:34:01.931Z,0.50
2023-01-22T02:36:32.195Z,0.70
2023-01-22T02:38:59.369Z,0.70
2023-01-22T02:41:27.493Z,0.70
2023-01-22T02:43:54.706Z,0.50
2023-01-22T02:46:25.946Z,0.70
2023-01-22T02:48:53.413Z,0.50
2023-01-22T02:51:20.688Z,0.80
2023-01-22T02:53:50.018Z,0.60
2023-01-22T02:56:17.662Z,0.80
2023-01-22T02:58:44.803Z,0.60
2023-01-22T03:01:24.467Z,0.60
2023-01-22T03:04:12.715Z,0.70
2023-01-22T03:06:45.113Z,0.80
2023-01-22T03:09:16.657Z,0.80
2023-01-22T03:11:46.491Z,0.60
2023-01-22T03:14:37.895Z,0.50
2023-01-22T03:17:23.755Z,0.70
2023-01-22T03:20:10.070Z,0.80
2023-01-22T03:22:37.155Z,0.60
2023-01-22T03:25:04.672Z,0.70
2023-01-22T03:27:32.564Z,0.60
2023-01-22T03:29:59.735Z,0.60
2023-01-22T03:32:27.927Z,0.80
2023-01-22T03:34:55.324Z,0.50
2023-01-22T03:37:23.590Z,0.60
2023-01-22T03:39:53.539Z,0.80
2023-01-22T03:42:32.390Z,0.80
2023-01-22T03:44:59.365Z,0.70
2023-01-22T03:47:27.006Z,0.90
2023-01-22T03:49:54.167Z,0.80
2023-01-22T03:52:21.360Z,0.60
2023-01-22T03:54:48.298Z,0.70
2023-01-22T03:57:15.313Z,0.90
2023-01-22T03:59:42.999Z,0.70
2023-01-22T04:02:10.134Z,0.80
2023-01-22T04:04:47.875Z,0.70
2023-01-22T04:07:14.944Z,0.80
2023-01-22T04:09:42.267Z,0.90
2023-01-22T04:12:09.331Z,0.80
2023-01-22T04:14:36.350Z,0.90
2023-01-22T04:17:04.326Z,0.90
2023-01-22T04:19:31.325Z,0.60
2023-01-22T04:22:11.796Z,0.80
2023-01-22T04:24:39.772Z,0.80
2023-01-22T04:27:06.859Z,0.70
2023-01-22T04:29:33.968Z,0.80
2023-01-22T04:32:00.986Z,0.60
2023-01-22T04:34:47.771Z,0.60
2023-01-22T04:40:00.194Z,0.60
2023-01-22T04:42:27.339Z,0.80
2023-01-22T04:44:54.414Z,0.70
2023-01-22T04:47:21.712Z,0.90
2023-01-22T04:49:48.745Z,0.80
2023-01-22T04:52:17.400Z,0.80
2023-01-22T04:54:44.372Z,0.80
2023-01-22T04:57:12.173Z,0.60
2023-01-22T04:59:39.233Z,0.80
2023-01-22T05:02:06.666Z,0.80
2023-01-22T05:04:33.695Z,0.60
2023-01-22T05:07:00.671Z,0.60
2023-01-22T05:09:27.724Z,0.70
2023-01-22T05:12:03.435Z,0.50
2023-01-22T05:14:34.875Z,0.60
2023-01-22T05:17:02.428Z,0.70
2023-01-22T05:19:29.474Z,0.50
2023-01-22T05:21:56.566Z,0.80
2023-01-22T05:24:23.530Z,0.80
2023-01-22T05:26:50.527Z,0.80
2023-01-22T05:29:27.641Z,0.80
2023-01-22T05:32:13.825Z,0.60
2023-01-22T05:34:45.431Z,0.60
2023-01-22T05:37:13.058Z,0.70
2023-01-22T05:39:40.306Z,0.70
2023-01-22T05:42:16.559Z,0.80
2023-01-22T05:44:46.590Z,0.70
2023-01-22T05:47:14.549Z,0.50
2023-01-22T05:50:03.769Z,0.80
2023-01-22T05:52:30.819Z,0.80
2023-01-22T05:54:59.867Z,0.60
2023-01-22T05:57:29.813Z,0.70
2023-01-22T05:59:56.947Z,0.70
2023-01-22T06:02:23.937Z,0.70
2023-01-22T06:04:53.461Z,0.80
2023-01-22T06:07:25.228Z,0.60
2023-01-22T06:09:52.886Z,0.60
2023-01-22T06:12:19.914Z,0.90
2023-01-22T06:14:47.366Z,0.90
2023-01-22T06:17:14.707Z,0.70
2023-01-22T06:19:47.118Z,0.70
2023-01-22T06:22:16.020Z,0.70
2023-01-22T06:24:50.586Z,0.70
2023-01-22T06:27:19.226Z,0.90
2023-01-22T06:29:54.111Z,0.90
2023-01-22T06:32:21.502Z,0.90
2023-01-22T06:34:48.646Z,0.70
2023-01-22T06:37:17.357Z,0.70
2023-01-22T06:39:44.476Z,0.70
2023-01-22T06:42:27.876Z,0.90
2023-01-22T06:44:56.495Z,0.80
2023-01-22T06:47:26.320Z,0.90
2023-01-22T06:49:53.418Z,0.80
2023-01-22T06:52:20.679Z,0.60
2023-01-22T06:54:47.716Z,0.70
2023-01-22T06:57:14.827Z,0.60
2023-01-22T06:59:42.044Z,0.30
2023-01-22T07:02:16.894Z,0.10
2023-01-22T07:04:44.204Z,0.00
2023-01-22T07:07:11.991Z,0.10
2023-01-22T07:09:38.967Z,0.00
2023-01-22T07:12:06.184Z,-0.10
2023-01-22T07:14:37.509Z,-0.10
2023-01-22T07:17:05.064Z,-0.10
2023-01-22T07:19:32.419Z,0.00
2023-01-22T07:21:59.504Z,0.00
2023-01-22T07:24:26.730Z,0.00
2023-01-22T07:26:53.785Z,0.00
2023-01-22T07:29:20.742Z,0.10
2023-01-22T07:31:49.790Z,0.20
2023-01-22T07:34:16.994Z,0.20
2023-01-22T07:36:45.790Z,0.00
2023-01-22T07:39:12.740Z,0.00
2023-01-22T07:41:39.761Z,0.10
2023-01-22T07:44:12.052Z,0.10
2023-01-22T07:46:39.224Z,0.00
2023-01-22T07:49:07.649Z,0.00
2023-01-22T07:51:34.822Z,0.00
2023-01-22T07:54:01.916Z,0.20
2023-01-22T07:56:29.094Z,0.20
2023-01-22T07:58:56.064Z,0.30
2023-01-22T08:01:23.303Z,0.50
2023-01-22T08:03:50.303Z,0.60
2023-01-22T08:06:20.782Z,0.70
2023-01-22T08:08:47.859Z,0.60
2023-01-22T08:11:15.429Z,0.60
2023-01-22T08:13:42.519Z,0.60
2023-01-22T08:16:09.683Z,0.60
2023-01-22T08:18:37.305Z,0.80
2023-01-22T08:21:04.610Z,0.80
2023-01-22T08:23:31.809Z,0.80
2023-01-22T08:26:00.553Z,0.90
2023-01-22T08:28:27.864Z,0.70
2023-01-22T08:31:00.187Z,0.90
2023-01-22T08:33:28.147Z,0.70
2023-01-22T08:38:22.516Z,0.80
2023-01-22T08:43:18.159Z,0.60
2023-01-22T08:48:14.870Z,0.90
2023-01-22T08:50:41.778Z,1.30
2023-01-22T11:16:21.052Z,2.50
2023-01-22T11:19:16.772Z,2.40
2023-01-22T11:21:52.278Z,2.40
2023-01-22T11:24:48.358Z,2.40
2023-01-22T11:27:50.609Z,2.50
2023-01-22T11:30:58.094Z,2.30
2023-01-22T11:34:25.624Z,2.60
2023-01-22T11:37:09.229Z,2.50
2023-01-22T11:40:26.162Z,2.50
2023-01-22T11:43:20.756Z,2.60
2023-01-22T11:46:09.741Z,2.50
2023-01-22T11:48:51.288Z,2.50
2023-01-22T11:54:37.403Z,2.70
2023-01-22T12:02:58.977Z,2.80
2023-01-22T12:05:48.094Z,2.80
2023-01-22T12:08:33.125Z,2.80
2023-01-22T12:14:13.696Z,2.80
2023-01-22T12:19:44.755Z,2.80
2023-01-22T12:22:48.289Z,3.20
2023-01-22T12:25:22.016Z,3.20
2023-01-22T12:28:00.698Z,3.00
2023-01-22T12:31:08.291Z,3.20
2023-01-22T12:33:41.825Z,3.10
2023-01-22T12:36:16.360Z,2.90
2023-01-22T12:39:06.981Z,3.00
2023-01-22T12:42:13.306Z,3.20
2023-01-22T12:45:27.708Z,3.10
2023-01-22T12:47:57.529Z,3.00
2023-01-22T12:50:27.314Z,2.90
2023-01-22T12:53:03.943Z,2.90
2023-01-22T12:55:37.961Z,3.10
2023-01-22T12:58:21.110Z,2.90
2023-01-22T13:01:23.557Z,3.00
2023-01-22T13:04:05.138Z,2.90
2023-01-22T13:06:40.590Z,2.80
2023-01-22T13:09:25.688Z,2.80
2023-01-22T13:11:52.669Z,3.00
2023-01-22T13:14:30.935Z,2.90
2023-01-22T13:17:03.635Z,3.00
2023-01-22T13:19:40.078Z,2.90
2023-01-22T13:22:13.377Z,2.90
2023-01-22T13:24:58.575Z,2.80
2023-01-22T13:27:36.160Z,2.80
2023-01-22T13:30:15.945Z,2.70
2023-01-22T13:32:43.211Z,2.80
2023-01-22T13:35:14.992Z,2.70
2023-01-22T13:37:45.157Z,2.90
2023-01-22T13:40:30.385Z,2.90
2023-01-22T13:43:01.823Z,2.80
2023-01-22T13:45:31.723Z,2.90
2023-01-22T13:48:04.062Z,3.00
2023-01-22T13:50:32.660Z,3.00
2023-01-22T13:53:03.463Z,2.90
2023-01-22T13:55:30.883Z,2.90
2023-01-22T13:58:05.232Z,2.90
2023-01-22T14:00:35.032Z,2.90
2023-01-22T14:03:02.933Z,3.10
2023-01-22T14:05:35.667Z,3.10
2023-01-22T14:08:08.819Z,3.00
2023-01-22T14:10:36.448Z,3.20
2023-01-22T14:13:12.741Z,3.30
2023-01-22T14:15:41.190Z,3.20
2023-01-22T14:18:17.085Z,3.30
2023-01-22T14:20:47.150Z,3.20
2023-01-22T14:23:15.679Z,3.30
2023-01-22T14:25:49.487Z,3.30
2023-01-22T14:28:16.877Z,3.20
2023-01-22T14:30:44.598Z,3.20
2023-01-22T14:33:32.700Z,3.20
2023-01-22T14:36:00.206Z,3.10
2023-01-22T14:38:28.092Z,3.00
2023-01-22T14:45:51.603Z,3.00
2023-01-22T14:48:20.614Z,3.00
2023-01-22T14:50:49.013Z,2.90
2023-01-22T14:53:17.846Z,3.00
2023-01-22T14:55:47.886Z,2.90
2023-01-22T14:58:16.300Z,3.10
2023-01-22T15:00:44.382Z,2.90
2023-01-22T15:03:11.405Z,3.00
2023-01-22T15:05:38.387Z,3.10
2023-01-22T15:08:05.479Z,3.10
2023-01-22T15:10:33.037Z,3.00
2023-01-22T15:12:59.937Z,2.90
2023-01-22T15:15:28.377Z,2.70
2023-01-22T15:20:25.735Z,2.90
2023-01-22T15:22:53.105Z,2.80
2023-01-22T15:25:20.274Z,2.90
2023-01-22T15:27:47.373Z,2.90
2023-01-22T15:30:15.411Z,3.00
2023-01-22T15:32:42.487Z,3.00
2023-01-22T15:35:10.263Z,2.80
2023-01-22T15:37:37.473Z,2.60
2023-01-22T15:40:05.459Z,2.70
2023-01-22T15:42:35.584Z,2.70
2023-01-22T15:45:04.325Z,2.40
2023-01-22T15:47:31.319Z,2.20
2023-01-22T15:49:58.353Z,2.20
2023-01-22T15:52:25.269Z,2.30
2023-01-22T15:54:55.802Z,2.10
2023-01-22T15:57:22.827Z,2.10
2023-01-22T15:59:51.287Z,2.20
2023-01-22T16:02:18.574Z,2.30
2023-01-22T16:04:45.678Z,2.50
2023-01-22T16:07:12.649Z,2.50
2023-01-22T16:09:39.834Z,2.50
2023-01-22T16:12:07.276Z,2.40
2023-01-22T16:14:34.201Z,2.50
2023-01-22T16:17:01.648Z,2.50
2023-01-22T16:19:28.592Z,2.40
2023-01-22T16:21:55.565Z,2.40
2023-01-22T16:24:22.539Z,2.60
2023-01-22T16:26:49.627Z,2.60
2023-01-22T16:29:16.682Z,2.60
2023-01-22T16:31:43.699Z,2.60
2023-01-22T16:34:17.064Z,2.70
2023-01-22T16:36:45.124Z,2.50
2023-01-22T16:39:22.214Z,2.50
2023-01-22T16:41:51.861Z,2.50
2023-01-22T16:44:26.194Z,2.40
2023-01-22T16:46:57.108Z,2.50
2023-01-22T16:49:28.998Z,2.50
2023-01-22T16:52:16.699Z,2.40
2023-01-22T16:54:49.344Z,2.40
2023-01-22T16:57:16.492Z,2.40
2023-01-22T16:59:43.712Z,2.40
2023-01-22T17:02:16.035Z,2.20
2023-01-22T17:04:43.023Z,2.40
2023-01-22T17:07:20.516Z,2.40
2023-01-22T17:09:54.862Z,2.20
2023-01-22T17:12:21.778Z,2.20
2023-01-22T17:14:52.632Z,2.20
2023-01-22T17:17:19.606Z,2.20
2023-01-22T17:19:46.614Z,2.10
2023-01-22T17:22:13.556Z,2.40
2023-01-22T17:24:41.682Z,2.30
2023-01-22T17:27:08.925Z,2.20
2023-01-22T17:29:36.284Z,2.30
2023-01-22T17:32:04.255Z,2.40
2023-01-22T17:34:31.393Z,2.20
2023-01-22T17:36:58.430Z,2.30
2023-01-22T17:39:25.475Z,2.40
2023-01-22T17:41:52.487Z,2.20
2023-01-22T17:44:19.470Z,2.30
2023-01-22T17:46:49.080Z,2.20
2023-01-22T17:49:16.678Z,2.20
2023-01-22T17:51:43.832Z,2.30
2023-01-22T17:54:10.883Z,2.30
2023-01-22T17:56:43.036Z,2.40
2023-01-22T17:59:12.196Z,2.40
2023-01-22T18:01:40.335Z,2.40
2023-01-22T18:04:10.695Z,2.30
2023-01-22T18:06:39.231Z,2.10
2023-01-22T18:09:07.928Z,2.20
2023-01-22T18:14:10.872Z,2.80
2023-01-22T18:36:39.645Z,2.40
2023-01-22T18:39:11.716Z,2.30
2023-01-22T18:41:40.655Z,2.00
2023-01-22T18:44:09.343Z,1.90
2023-01-22T18:46:36.944Z,1.90
2023-01-22T18:49:10.094Z,1.90
2023-01-22T18:51:37.186Z,1.60
2023-01-22T18:54:05.299Z,1.70
2023-01-22T18:56:32.440Z,1.60
2023-01-22T18:59:00.255Z,1.70
2023-01-22T19:01:34.040Z,1.60
2023-01-22T19:04:05.543Z,1.80
2023-01-22T19:06:37.361Z,1.80
2023-01-22T19:09:12.435Z,1.70
2023-01-22T19:11:43.293Z,1.50
2023-01-22T19:14:14.620Z,1.80
2023-01-22T19:16:44.768Z,1.60
2023-01-22T19:19:13.613Z,1.60
2023-01-22T19:21:46.805Z,1.80
2023-01-22T19:24:17.075Z,1.90
2023-01-22T19:29:17.325Z,1.50
2023-01-22T19:31:51.892Z,1.80
2023-01-22T19:34:25.382Z,1.60
2023-01-22T19:36:55.586Z,1.60
2023-01-22T19:39:25.423Z,1.40
2023-01-22T19:41:52.692Z,1.50
2023-01-22T19:44:20.236Z,1.60
2023-01-22T19:46:47.365Z,1.60
2023-01-22T19:49:14.575Z,1.70
2023-01-22T19:51:42.019Z,1.50
2023-01-22T19:54:10.166Z,1.60
2023-01-22T19:56:39.756Z,1.60
2023-01-22T19:59:19.832Z,1.80
2023-01-22T20:01:48.712Z,1.80
2023-01-22T20:04:21.493Z,1.70
2023-01-22T20:09:21.831Z,1.80
2023-01-22T20:11:54.170Z,1.60
2023-01-22T20:14:25.780Z,1.80
2023-01-22T20:16:53.025Z,1.60
2023-01-22T20:19:20.011Z,1.70
2023-01-22T20:21:47.041Z,1.70
2023-01-22T20:24:14.168Z,1.70
2023-01-22T20:26:41.288Z,1.90
2023-01-22T20:36:31.870Z,1.80
2023-01-22T20:39:00.793Z,1.90
2023-01-22T20:41:28.512Z,1.90
2023-01-22T20:43:55.699Z,1.90
2023-01-22T20:46:26.000Z,1.90
2023-01-22T20:48:53.946Z,1.70
2023-01-22T21:18:50.314Z,1.60
2023-01-22T21:21:19.377Z,1.60
2023-01-22T21:23:52.256Z,1.60
2023-01-22T21:26:23.685Z,1.80
2023-01-22T21:28:55.167Z,1.80
2023-01-22T21:31:23.599Z,1.60
2023-01-22T21:33:52.655Z,1.70
2023-01-22T21:36:20.132Z,1.60
2023-01-22T21:38:47.882Z,1.30
2023-01-22T21:41:18.361Z,1.40
2023-01-22T21:44:05.542Z,1.50
2023-01-22T21:46:42.368Z,1.30
2023-01-22T21:49:20.036Z,1.50
2023-01-22T21:52:01.317Z,1.40
2023-01-22T21:54:38.046Z,1.30
2023-01-22T21:57:09.200Z,1.10
2023-01-22T21:59:36.847Z,1.30
2023-01-22T22:02:04.730Z,1.10
2023-01-22T22:04:33.171Z,1.30
2023-01-22T22:07:00.124Z,1.10
2023-01-22T22:09:28.974Z,1.30
2023-01-22T22:11:58.273Z,1.30
2023-01-22T22:14:25.753Z,1.30
2023-01-22T22:16:54.074Z,1.10
2023-01-22T22:19:23.053Z,1.00
2023-01-22T22:21:51.035Z,1.10
2023-01-22T22:24:19.585Z,1.20
2023-01-22T22:26:46.804Z,1.40
2023-01-22T22:29:13.790Z,1.30
2023-01-22T22:31:41.434Z,1.30
2023-01-22T22:34:08.496Z,1.10
2023-01-22T22:36:35.673Z,1.20
2023-01-22T22:39:03.728Z,1.20
2023-01-22T22:41:33.870Z,0.90
2023-01-22T22:44:00.864Z,1.10
2023-01-22T22:46:31.809Z,1.00
2023-01-22T22:49:00.983Z,1.10
2023-01-22T22:51:37.779Z,0.90
2023-01-22T22:54:16.760Z,1.10
2023-01-22T22:56:45.870Z,1.20
2023-01-22T22:59:14.104Z,1.30
2023-01-22T23:01:41.478Z,1.10
2023-01-22T23:04:08.693Z,1.20
